Time;durP1;ratioP1;P1;durP2;ratioP2;P2;SDS_P1;SDS_P2;PMS_P1;PMS_P2;Temp;Humidity;BMP_temperature;BMP_pressure;BME280_temperature;BME280_humidity;BME280_pressure;Samples;Min_cycle;Max_cycle;Signal;HPM_P1;HPM_P2
2022/06/12 00:00:44;;;;;;;21.48;3.25;;;;;;;20.56;45.38;100456.59;5030740;28;20460;-56
2022/06/12 00:03:14;;;;;;;14.77;3.10;;;;;;;20.55;45.69;100461.06;5030652;28;20111;-56
2022/06/12 00:05:44;;;;;;;11.27;2.95;;;;;;;20.55;45.82;100457.53;5013197;28;20053;-58
2022/06/12 00:08:11;;;;;;;15.32;3.40;;;;;;;20.54;45.74;100463.88;5030250;28;20042;-59
2022/06/12 00:10:42;;;;;;;11.27;3.17;;;;;;;20.52;45.46;100461.34;5030606;28;20084;-59
2022/06/12 00:13:11;;;;;;;12.43;3.25;;;;;;;20.51;45.59;100465.00;5030382;28;20123;-58
2022/06/12 00:15:38;;;;;;;13.27;3.53;;;;;;;20.51;45.57;100458.78;5013254;28;20057;-58
2022/06/12 00:18:05;;;;;;;10.98;3.40;;;;;;;20.49;45.40;100463.44;5030130;28;20102;-59
2022/06/12 00:20:32;;;;;;;9.27;2.70;;;;;;;20.47;45.35;100457.38;5030668;28;20042;-58
2022/06/12 00:22:59;;;;;;;9.38;2.60;;;;;;;20.44;45.43;100455.81;5030383;28;20057;-59
2022/06/12 00:25:29;;;;;;;14.80;3.15;;;;;;;20.40;45.91;100457.06;5030336;28;20705;-56
2022/06/12 00:27:56;;;;;;;15.70;2.95;;;;;;;20.38;45.75;100454.53;5030711;28;20053;-59
2022/06/12 00:30:25;;;;;;;15.00;3.50;;;;;;;20.34;45.68;100453.13;5012477;28;20050;-56
2022/06/12 00:32:54;;;;;;;15.23;3.10;;;;;;;20.31;45.74;100456.88;5030472;28;20065;-59
2022/06/12 00:35:29;;;;;;;14.40;3.63;;;;;;;20.26;45.83;100453.78;5031495;28;20131;-56
2022/06/12 00:37:56;;;;;;;14.95;2.83;;;;;;;20.25;45.65;100448.56;5016679;28;20053;-62
2022/06/12 00:40:23;;;;;;;14.57;3.03;;;;;;;20.22;45.72;100451.50;5034046;28;20042;-57
2022/06/12 00:42:54;;;;;;;12.77;3.00;;;;;;;20.17;46.15;100447.41;5034401;28;20092;-55
2022/06/12 00:45:30;;;;;;;13.52;2.97;;;;;;;20.12;46.45;100446.13;5016775;28;20096;-58
2022/06/12 00:48:01;;;;;;;11.93;3.15;;;;;;;20.11;46.55;100441.75;5016667;28;20053;-58
2022/06/12 00:50:30;;;;;;;14.30;3.10;;;;;;;20.06;46.38;100436.78;5033745;28;20065;-61
2022/06/12 00:52:57;;;;;;;10.57;3.00;;;;;;;20.03;46.43;100439.72;5016844;28;20060;-57
2022/06/12 00:55:41;;;;;;;8.20;2.35;;;;;;;19.94;47.00;100438.69;5016371;28;20065;-60
2022/06/12 00:58:11;;;;;;;7.20;2.65;;;;;;;19.93;46.33;100439.66;5016178;28;20095;-59
2022/06/12 01:00:39;;;;;;;10.70;2.65;;;;;;;19.90;46.15;100434.56;5033821;28;20052;-58
2022/06/12 01:03:07;;;;;;;12.10;2.92;;;;;;;19.85;46.60;100434.97;5034048;28;20083;-58
2022/06/12 01:08:20;;;;;;;10.48;2.90;;;;;;;19.76;46.83;100436.59;5033604;28;20046;-58
2022/06/12 01:10:50;;;;;;;10.35;2.63;;;;;;;19.71;46.90;100437.97;5033484;28;20053;-58
2022/06/12 01:13:21;;;;;;;9.18;2.60;;;;;;;19.66;47.45;100431.19;5015873;28;20045;-56
2022/06/12 01:15:58;;;;;;;14.40;2.75;;;;;;;19.60;47.64;100430.88;5033728;28;20060;-56
2022/06/12 01:18:30;;;;;;;15.60;2.88;;;;;;;19.58;47.59;100433.66;5033515;28;20085;-59
2022/06/12 01:21:27;;;;;;;15.68;2.63;;;;;;;19.49;47.75;100431.78;5033702;28;20107;-58
2022/06/12 01:24:19;;;;;;;13.27;3.40;;;;;;;19.45;47.08;100433.00;5027606;28;20045;-58
2022/06/12 01:26:55;;;;;;;9.38;2.35;;;;;;;19.46;47.66;100438.22;5004842;28;20057;-56
2022/06/12 01:29:30;;;;;;;14.13;2.90;;;;;;;19.41;47.32;100435.09;5033160;28;20049;-57
2022/06/12 01:32:06;;;;;;;10.48;2.30;;;;;;;19.42;46.80;100438.59;5033305;28;20049;-59
2022/06/12 01:34:35;;;;;;;11.52;2.33;;;;;;;19.40;46.69;100436.09;5015790;28;20111;-57
2022/06/12 01:37:13;;;;;;;8.95;2.15;;;;;;;19.35;46.93;100441.78;5033245;28;20267;-56
2022/06/12 01:39:49;;;;;;;10.10;2.47;;;;;;;19.37;47.33;100439.81;5032954;28;20835;-57
2022/06/12 01:42:35;;;;;;;8.70;2.38;;;;;;;19.38;46.70;100440.69;5015803;28;20045;-57
2022/06/12 01:45:32;;;;;;;10.80;2.60;;;;;;;19.33;46.71;100446.41;5033569;28;20103;-59
2022/06/12 01:48:20;;;;;;;9.18;2.28;;;;;;;19.33;46.42;100445.56;5031858;28;20501;-57
2022/06/12 01:50:56;;;;;;;9.10;2.35;;;;;;;19.34;46.48;100445.44;5032956;28;20076;-59
2022/06/12 01:53:31;;;;;;;9.57;2.58;;;;;;;19.35;46.16;100439.13;5033118;28;20050;-55
2022/06/12 01:56:22;;;;;;;10.80;2.47;;;;;;;19.31;45.88;100429.69;5032936;28;20045;-59
2022/06/12 01:59:12;;;;;;;9.25;2.75;;;;;;;19.29;46.61;100436.97;5015182;28;20144;-58
2022/06/12 02:01:48;;;;;;;10.40;2.58;;;;;;;19.31;46.29;100432.34;5032972;28;20093;-54
2022/06/12 02:04:23;;;;;;;12.50;2.97;;;;;;;19.32;46.26;100430.53;5015076;28;20551;-57
2022/06/12 02:07:01;;;;;;;9.48;2.53;;;;;;;19.27;46.04;100426.44;5032663;28;20409;-58
2022/06/12 02:09:37;;;;;;;13.35;2.90;;;;;;;19.25;46.39;100441.72;5032308;28;20487;-59
2022/06/12 02:15:02;;;;;;;10.05;2.60;;;;;;;19.23;46.28;100437.47;5032465;28;20607;-60
2022/06/12 02:17:35;;;;;;;8.95;2.30;;;;;;;19.18;46.30;100432.53;5032432;28;20057;-59
2022/06/12 02:20:09;;;;;;;7.93;1.98;;;;;;;19.14;46.26;100433.75;5014549;28;20060;-57
2022/06/12 02:22:39;;;;;;;7.75;2.47;;;;;;;19.11;46.14;100434.84;5014564;28;20069;-59
2022/06/12 02:25:10;;;;;;;11.55;2.38;;;;;;;19.06;46.26;100436.22;5014840;28;20057;-55
2022/06/12 02:27:41;;;;;;;10.98;2.67;;;;;;;19.01;46.78;100428.53;5032083;28;20515;-57
2022/06/12 02:30:19;;;;;;;16.58;2.83;;;;;;;18.96;46.84;100431.59;5031754;28;20698;-59
2022/06/12 02:32:57;;;;;;;8.38;2.70;;;;;;;18.95;46.84;100440.56;5032302;28;20084;-58
2022/06/12 02:35:27;;;;;;;10.45;2.80;;;;;;;18.94;46.55;100430.88;5014518;28;20099;-60
2022/06/12 02:37:59;;;;;;;16.52;2.67;;;;;;;18.90;46.61;100437.41;5032120;28;20057;-55
2022/06/12 02:40:31;;;;;;;12.80;3.00;;;;;;;18.87;47.03;100432.34;5031849;28;20057;-55
2022/06/12 02:43:05;;;;;;;7.45;2.00;;;;;;;18.83;46.43;100426.41;5014584;28;20041;-58
2022/06/12 02:45:38;;;;;;;7.70;2.38;;;;;;;18.81;46.54;100432.84;5032271;28;20053;-58
2022/06/12 02:48:06;;;;;;;11.68;2.90;;;;;;;18.78;46.07;100423.28;5031760;28;20390;-60
2022/06/12 02:50:44;;;;;;;5.10;1.70;;;;;;;18.72;45.98;100426.41;5014128;28;20080;-57
2022/06/12 02:53:23;;;;;;;6.55;2.20;;;;;;;18.68;45.98;100422.31;5031683;28;20088;-59
2022/06/12 02:56:05;;;;;;;8.07;2.38;;;;;;;18.64;46.02;100421.72;5031824;28;20579;-59
2022/06/12 02:58:55;;;;;;;12.18;2.63;;;;;;;18.59;45.44;100419.44;5031171;28;20489;-56
2022/06/12 03:01:31;;;;;;;7.07;2.05;;;;;;;18.58;45.80;100436.38;5014009;28;20045;-58
2022/06/12 03:04:12;;;;;;;9.65;2.03;;;;;;;18.54;45.98;100423.44;5013863;28;20061;-58
2022/06/12 03:06:40;;;;;;;7.15;1.73;;;;;;;18.49;46.00;100426.47;5031574;28;20514;-56
2022/06/12 03:09:07;;;;;;;8.05;2.05;;;;;;;18.45;45.50;100433.00;5013750;28;20564;-58
2022/06/12 03:11:38;;;;;;;4.07;1.52;;;;;;;18.40;45.90;100424.53;5031476;28;20134;-58
2022/06/12 03:14:08;;;;;;;6.88;1.92;;;;;;;18.36;45.85;100429.28;5013494;28;20057;-56
2022/06/12 03:16:40;;;;;;;7.88;2.05;;;;;;;18.33;45.88;100427.69;5013966;28;20053;-56
2022/06/12 03:19:09;;;;;;;6.20;1.77;;;;;;;18.33;46.03;100426.84;5013595;28;20391;-59
2022/06/12 03:21:52;;;;;;;5.93;2.05;;;;;;;18.25;45.96;100430.13;5031373;28;20064;-55
2022/06/12 03:24:47;;;;;;;8.70;2.33;;;;;;;18.24;46.24;100431.06;5031083;28;20497;-59
2022/06/12 03:27:55;;;;;;;8.57;1.73;;;;;;;18.20;45.73;100426.94;5031256;28;20041;-58
2022/06/12 03:30:21;;;;;;;7.60;2.33;;;;;;;18.22;45.97;100433.88;5017705;28;20049;-58
2022/06/12 03:33:10;;;;;;;6.68;2.05;;;;;;;18.15;46.52;100431.78;5031170;28;20045;-55
2022/06/12 03:35:46;;;;;;;13.00;2.50;;;;;;;18.16;46.40;100429.00;5030960;28;20114;-57
2022/06/12 03:38:26;;;;;;;6.95;2.53;;;;;;;18.12;46.73;100432.06;5030687;28;20050;-58
2022/06/12 03:41:16;;;;;;;9.30;2.38;;;;;;;18.08;46.50;100429.63;5030946;28;20082;-59
2022/06/12 03:44:16;;;;;;;12.00;2.55;;;;;;;18.06;46.74;100434.19;5031147;28;20057;-58
2022/06/12 03:46:55;;;;;;;8.63;2.03;;;;;;;18.06;46.69;100425.34;5030850;28;20129;-57
2022/06/12 03:49:31;;;;;;;5.72;2.03;;;;;;;18.06;46.60;100428.03;5012872;28;20145;-58
2022/06/12 03:52:17;;;;;;;6.45;1.77;;;;;;;18.04;46.53;100427.28;5013526;28;20494;-58
2022/06/12 03:55:08;;;;;;;6.03;2.00;;;;;;;18.01;46.32;100425.69;5030801;28;20053;-58
2022/06/12 03:57:52;;;;;;;11.55;2.10;;;;;;;18.04;46.59;100432.59;5030811;28;20080;-58
2022/06/12 04:00:37;;;;;;;10.48;2.63;;;;;;;17.97;46.49;100419.78;5030593;28;20057;-59
2022/06/12 04:03:15;;;;;;;8.43;2.30;;;;;;;18.00;46.44;100418.69;5030879;28;20544;-58
2022/06/12 04:05:50;;;;;;;5.95;1.75;;;;;;;17.99;47.06;100427.66;5013190;28;20053;-59
2022/06/12 04:08:21;;;;;;;5.90;2.03;;;;;;;17.98;46.64;100418.81;5030366;28;20091;-59
2022/06/12 04:10:49;;;;;;;8.52;2.25;;;;;;;18.00;46.63;100418.69;5015054;28;20085;-60
2022/06/12 04:13:18;;;;;;;8.00;2.35;;;;;;;18.00;46.57;100426.69;5034620;28;20052;-59
2022/06/12 04:15:47;;;;;;;6.30;2.03;;;;;;;17.98;46.59;100421.47;5034646;28;20108;-59
2022/06/12 04:18:15;;;;;;;5.70;2.22;;;;;;;18.00;46.87;100418.69;5034289;28;20576;-57
2022/06/12 04:20:56;;;;;;;9.45;2.00;;;;;;;17.97;46.93;100425.09;5034382;28;20504;-58
2022/06/12 04:23:42;;;;;;;8.77;2.50;;;;;;;17.98;46.98;100426.78;5034823;28;20056;-59
2022/06/12 04:26:42;;;;;;;5.57;2.15;;;;;;;17.98;46.71;100429.47;5034307;28;20489;-53
2022/06/12 04:29:12;;;;;;;7.03;1.88;;;;;;;18.01;46.71;100425.69;5034075;28;20045;-57
2022/06/12 04:31:42;;;;;;;9.93;2.28;;;;;;;18.04;46.63;100424.59;5034095;28;20409;-55
2022/06/12 04:34:15;;;;;;;8.13;2.40;;;;;;;18.05;46.96;100424.50;5016929;28;20140;-52
2022/06/12 04:36:45;;;;;;;7.45;2.47;;;;;;;18.06;46.72;100423.53;5034455;28;20100;-50
2022/06/12 04:39:18;;;;;;;7.40;2.25;;;;;;;18.07;46.84;100422.56;5034276;28;20054;-52
2022/06/12 04:41:44;;;;;;;7.30;2.25;;;;;;;18.10;47.04;100422.34;5016615;28;20117;-54
2022/06/12 04:44:12;;;;;;;7.55;2.13;;;;;;;18.13;46.77;100423.09;5034279;28;20486;-57
2022/06/12 04:46:43;;;;;;;7.88;2.00;;;;;;;18.14;46.86;100419.44;5016371;28;20050;-55
2022/06/12 04:49:15;;;;;;;9.55;2.63;;;;;;;18.17;46.72;100421.88;5016390;28;20056;-52
2022/06/12 04:51:42;;;;;;;7.45;2.20;;;;;;;18.18;46.92;100418.25;5034068;28;20057;-59
2022/06/12 04:54:08;;;;;;;4.85;1.95;;;;;;;18.19;46.80;100417.25;5033941;28;20506;-53
2022/06/12 04:56:35;;;;;;;7.03;2.30;;;;;;;18.20;46.95;100410.97;5033695;28;20053;-56
2022/06/12 04:59:04;;;;;;;6.50;1.70;;;;;;;18.22;46.54;100411.69;5033909;28;20053;-57
2022/06/12 05:01:32;;;;;;;7.63;2.25;;;;;;;18.25;46.58;100407.94;5033763;28;20050;-56
2022/06/12 05:04:03;;;;;;;6.40;1.80;;;;;;;18.25;46.98;100414.13;5033944;28;20111;-53
2022/06/12 05:06:31;;;;;;;7.43;2.33;;;;;;;18.28;46.46;100419.19;5016207;28;20108;-51
2022/06/12 05:08:58;;;;;;;3.95;1.77;;;;;;;18.32;46.68;100430.47;5033247;28;20116;-60
2022/06/12 05:11:25;;;;;;;6.63;1.90;;;;;;;18.34;46.41;100425.88;5016335;28;20115;-54
2022/06/12 05:13:52;;;;;;;6.80;2.10;;;;;;;18.38;46.28;100426.50;5033742;28;20103;-52
2022/06/12 05:16:42;;;;;;;7.68;2.35;;;;;;;18.35;46.87;100428.41;5033569;28;20099;-53
2022/06/12 05:19:13;;;;;;;8.80;2.03;;;;;;;18.42;46.16;100425.25;5033105;28;20486;-52
2022/06/12 05:21:40;;;;;;;6.28;1.60;;;;;;;18.48;46.33;100422.09;5016134;28;20045;-56
2022/06/12 05:24:09;;;;;;;7.40;1.98;;;;;;;18.51;46.47;100423.69;5033402;28;20053;-53
2022/06/12 05:26:38;;;;;;;8.32;2.42;;;;;;;18.53;46.74;100421.72;5015986;28;20119;-54
2022/06/12 05:29:07;;;;;;;6.07;2.67;;;;;;;18.56;47.05;100419.69;5015362;28;20456;-55
2022/06/12 05:31:35;;;;;;;7.93;2.63;;;;;;;18.61;46.93;100416.63;5033073;28;20057;-57
2022/06/12 05:34:02;;;;;;;8.52;2.60;;;;;;;18.64;46.83;100418.22;5033381;28;20057;-54
2022/06/12 05:36:29;;;;;;;9.02;3.33;;;;;;;18.66;47.24;100425.13;5033347;28;20099;-54
2022/06/12 05:38:56;;;;;;;12.55;3.30;;;;;;;18.66;47.11;100430.47;5015264;28;20065;-58
2022/06/12 05:41:23;;;;;;;9.73;3.28;;;;;;;18.66;47.62;100421.59;5033116;28;20088;-56
2022/06/12 05:43:49;;;;;;;6.57;2.53;;;;;;;18.66;47.55;100427.78;5033101;28;20108;-57
2022/06/12 05:46:17;;;;;;;9.05;2.60;;;;;;;18.66;47.38;100421.59;5032775;28;20552;-58
2022/06/12 05:48:44;;;;;;;9.32;2.70;;;;;;;18.69;47.39;100429.34;5032878;28;20065;-59
2022/06/12 05:51:13;;;;;;;8.15;2.60;;;;;;;18.71;48.01;100432.72;5015420;28;20046;-59
2022/06/12 05:53:40;;;;;;;9.50;2.50;;;;;;;18.76;47.50;100430.53;5015380;28;20095;-59
2022/06/12 05:56:10;;;;;;;7.65;2.38;;;;;;;18.79;47.37;100430.28;5032817;28;20049;-58
2022/06/12 05:58:38;;;;;;;7.63;2.40;;;;;;;18.84;47.44;100424.59;5032527;28;20045;-59
2022/06/12 06:01:07;;;;;;;10.73;2.78;;;;;;;18.85;47.59;100424.47;5032970;28;20069;-60
2022/06/12 06:03:35;;;;;;;11.00;3.13;;;;;;;18.91;47.51;100425.78;5015207;28;20057;-59
2022/06/12 06:06:02;;;;;;;13.52;3.38;;;;;;;18.94;47.28;100424.66;5032726;28;20482;-58
2022/06/12 06:08:29;;;;;;;8.65;2.45;;;;;;;18.99;47.40;100430.50;5032488;28;20053;-59
2022/06/12 06:10:55;;;;;;;11.80;2.47;;;;;;;19.02;47.28;100425.75;5032499;28;20104;-57
2022/06/12 06:13:22;;;;;;;8.15;2.83;;;;;;;19.06;46.73;100425.53;5032345;28;20497;-59
2022/06/12 06:15:50;;;;;;;5.95;1.98;;;;;;;19.10;46.32;100422.47;5032269;28;20777;-59
2022/06/12 06:18:18;;;;;;;6.15;1.67;;;;;;;19.14;46.26;100429.25;5032380;28;20049;-60
2022/06/12 06:20:46;;;;;;;7.32;1.85;;;;;;;19.19;46.50;100430.69;5032276;28;20100;-59
2022/06/12 06:23:12;;;;;;;6.75;2.20;;;;;;;19.23;46.22;100421.47;5032398;28;20100;-60
2022/06/12 06:25:40;;;;;;;7.47;2.10;;;;;;;19.25;46.26;100432.88;5032223;28;20092;-60
2022/06/12 06:28:09;;;;;;;6.15;2.00;;;;;;;19.28;45.90;100419.25;4987135;28;20069;-57
2022/06/12 06:30:38;;;;;;;6.47;1.77;;;;;;;19.32;45.95;100431.38;4992602;28;20050;-59
2022/06/12 06:33:06;;;;;;;7.18;1.73;;;;;;;19.35;46.07;100428.44;4992262;28;20062;-59
2022/06/12 06:35:33;;;;;;;5.75;1.98;;;;;;;19.39;46.21;100423.69;4975552;28;20170;-59
2022/06/12 06:37:59;;;;;;;5.05;1.33;;;;;;;19.44;46.09;100416.13;4992710;28;20055;-59
2022/06/12 06:40:28;;;;;;;3.53;1.67;;;;;;;19.47;45.81;100429.22;4992141;28;20152;-59
2022/06/12 06:42:56;;;;;;;6.75;2.20;;;;;;;19.53;46.09;100433.22;4975663;28;20116;-59
2022/06/12 06:48:11;;;;;;;7.53;1.90;;;;;;;19.62;45.79;100437.78;4992507;28;20101;-57
2022/06/12 06:50:40;;;;;;;4.32;1.77;;;;;;;19.67;45.58;100440.06;4974975;28;20090;-60
2022/06/12 06:53:07;;;;;;;4.82;1.90;;;;;;;19.71;45.61;100436.16;4992539;28;20058;-60
2022/06/12 06:55:34;;;;;;;5.20;1.67;;;;;;;19.75;45.39;100442.06;4974889;28;20054;-59
2022/06/12 06:58:01;;;;;;;5.22;1.77;;;;;;;19.80;45.37;100442.53;4992298;28;20454;-58
2022/06/12 07:00:32;;;;;;;7.88;2.00;;;;;;;19.82;45.26;100440.59;4991683;28;20109;-59
2022/06/12 07:02:59;;;;;;;6.20;1.60;;;;;;;19.88;45.64;100436.50;4974828;28;20509;-60
2022/06/12 07:05:26;;;;;;;6.05;1.83;;;;;;;19.93;45.50;100435.16;4992384;28;20054;-61
2022/06/12 07:07:53;;;;;;;3.85;1.20;;;;;;;19.97;45.61;100433.09;4991815;28;20402;-59
2022/06/12 07:10:22;;;;;;;3.60;1.30;;;;;;;20.02;45.01;100430.88;4991731;28;20089;-60
2022/06/12 07:12:51;;;;;;;5.63;1.25;;;;;;;20.08;44.83;100434.84;4992077;28;20054;-59
2022/06/12 07:15:19;;;;;;;4.10;1.10;;;;;;;20.13;44.47;100431.75;4992243;28;20101;-59
2022/06/12 07:17:46;;;;;;;5.88;1.60;;;;;;;20.20;44.50;100437.41;4991848;28;20057;-59
2022/06/12 07:20:14;;;;;;;4.82;1.15;;;;;;;20.24;43.85;100433.50;4991498;28;20386;-59
2022/06/12 07:22:41;;;;;;;4.82;1.70;;;;;;;20.28;44.00;100446.47;4974949;28;20109;-59
2022/06/12 07:25:09;;;;;;;4.97;1.40;;;;;;;20.33;43.83;100443.38;4991645;28;20051;-59
2022/06/12 07:27:35;;;;;;;4.72;1.50;;;;;;;20.37;43.74;100442.13;4991384;28;20054;-59
2022/06/12 07:30:02;;;;;;;4.00;1.42;;;;;;;20.43;44.08;100438.94;4991437;28;20093;-59
2022/06/12 07:32:29;;;;;;;5.93;1.50;;;;;;;20.49;43.99;100434.03;4974484;28;20053;-60
2022/06/12 07:34:56;;;;;;;3.83;1.02;;;;;;;20.55;43.76;100441.50;4991705;28;20054;-60
2022/06/12 07:37:22;;;;;;;5.25;1.20;;;;;;;20.60;42.78;100446.44;4991790;28;20054;-58
2022/06/12 07:39:49;;;;;;;5.60;1.17;;;;;;;20.64;43.27;100448.69;4991452;28;20482;-60
2022/06/12 07:42:16;;;;;;;4.28;1.60;;;;;;;20.69;42.80;100450.97;4991069;28;20089;-58
2022/06/12 07:44:42;;;;;;;6.75;1.20;;;;;;;;;;4989989;28;20057;-59
2022/06/12 07:47:09;;;;;;;6.13;1.20;;;;;;;20.80;42.93;100450.00;4990726;28;20058;-59
2022/06/12 07:49:36;;;;;;;6.78;1.25;;;;;;;20.86;43.21;100449.44;4991083;28;20050;-59
2022/06/12 07:52:07;;;;;;;4.90;1.33;;;;;;;20.89;42.93;100441.19;4991192;28;20054;-60
2022/06/12 07:54:36;;;;;;;6.05;1.67;;;;;;;20.96;42.95;100446.81;4974000;28;20054;-60
2022/06/12 07:57:03;;;;;;;4.70;1.58;;;;;;;21.04;43.68;100436.28;4991352;28;20062;-59
2022/06/12 07:59:30;;;;;;;4.45;1.40;;;;;;;21.12;43.13;100442.78;4990687;28;20046;-58
2022/06/12 08:01:57;;;;;;;4.10;1.10;;;;;;;21.19;42.83;100436.72;4991456;28;20058;-57
2022/06/12 08:04:24;;;;;;;5.05;1.40;;;;;;;21.26;42.92;100442.34;4991342;28;20058;-59
2022/06/12 08:06:51;;;;;;;4.38;1.30;;;;;;;21.32;42.90;100440.94;4990415;28;20057;-59
2022/06/12 08:09:19;;;;;;;3.55;1.15;;;;;;;21.41;42.88;100449.97;4990923;28;20085;-59
2022/06/12 08:11:48;;;;;;;4.70;1.30;;;;;;;21.49;42.53;100442.06;4973891;28;20490;-60
2022/06/12 08:14:16;;;;;;;5.13;1.30;;;;;;;21.56;42.05;100437.81;4990543;28;20847;-59
2022/06/12 08:16:43;;;;;;;6.63;1.58;;;;;;;21.64;42.07;100444.31;4991169;28;20042;-60
2022/06/12 08:21:58;;;;;;;7.40;2.03;;;;;;;21.78;41.52;100441.19;4990644;28;20078;-59
2022/06/12 08:24:25;;;;;;;3.28;1.17;;;;;;;21.85;41.82;100449.50;4973570;28;20058;-59
2022/06/12 08:26:51;;;;;;;5.65;1.23;;;;;;;21.91;41.31;100440.06;4991028;28;20116;-59
2022/06/12 08:29:23;;;;;;;5.00;1.25;;;;;;;21.97;41.50;100440.31;4990904;28;20067;-60
2022/06/12 08:32:01;;;;;;;6.38;1.65;;;;;;;22.04;41.03;100439.72;4991204;28;20511;-60
2022/06/12 08:34:34;;;;;;;4.05;1.27;;;;;;;22.13;41.32;100441.56;4990961;28;20054;-59
2022/06/12 08:37:10;;;;;;;6.70;1.60;;;;;;;22.23;40.99;100436.13;4990969;28;20101;-60
2022/06/12 08:39:37;;;;;;;8.25;1.77;;;;;;;22.32;41.46;100437.91;4973653;28;20423;-57
2022/06/12 08:42:11;;;;;;;6.38;1.85;;;;;;;22.37;40.43;100434.81;4990890;28;20059;-60
2022/06/12 08:44:51;;;;;;;5.47;1.48;;;;;;;22.39;40.89;100428.28;4991085;28;20046;-58
2022/06/12 08:47:42;;;;;;;6.07;1.30;;;;;;;22.47;40.84;100437.44;4990849;28;20065;-59
2022/06/12 08:50:24;;;;;;;4.03;1.30;;;;;;;22.57;40.45;100434.75;4973097;28;20549;-57
2022/06/12 08:52:57;;;;;;;7.03;1.75;;;;;;;22.63;40.86;100429.63;4990910;28;20050;-55
2022/06/12 08:55:37;;;;;;;12.57;2.42;;;;;;;22.68;41.88;100431.84;4973584;28;20569;-54
2022/06/12 08:58:31;;;;;;;4.00;1.55;;;;;;;22.74;41.42;100425.03;4994849;28;20643;-62
2022/06/12 09:00:59;;;;;;;7.50;1.67;;;;;;;22.87;40.79;100430.88;4994566;28;20449;-55
2022/06/12 09:03:31;;;;;;;5.10;1.40;;;;;;;22.93;40.26;100421.38;4977448;28;20469;-58
2022/06/12 09:06:20;;;;;;;5.03;1.48;;;;;;;22.97;41.81;100420.06;4994421;28;20054;-58
2022/06/12 09:08:51;;;;;;;4.60;1.45;;;;;;;23.11;40.27;100416.03;4994445;28;20054;-59
2022/06/12 09:11:30;;;;;;;6.95;1.58;;;;;;;23.18;40.74;100429.69;4994366;28;20117;-56
2022/06/12 09:14:26;;;;;;;5.97;1.73;;;;;;;23.24;40.45;100418.31;4977065;28;20442;-59
2022/06/12 09:17:31;;;;;;;4.47;1.40;;;;;;;23.35;40.47;100409.19;4994163;28;20195;-59
2022/06/12 09:20:27;;;;;;;8.02;1.42;;;;;;;23.46;39.93;100415.31;4993720;28;20505;-59
2022/06/12 09:22:59;;;;;;;6.18;1.90;;;;;;;23.58;40.49;100408.69;4971466;28;20068;-58
2022/06/12 09:25:49;;;;;;;5.57;1.63;;;;;;;23.62;39.27;100402.00;4993940;28;20116;-56
2022/06/12 09:28:31;;;;;;;6.53;1.80;;;;;;;23.70;39.85;100411.97;4976603;28;20050;-58
2022/06/12 09:31:35;;;;;;;7.70;2.10;;;;;;;23.78;40.35;100397.75;4993801;28;20486;-60
2022/06/12 09:34:25;;;;;;;7.88;1.55;;;;;;;23.89;39.89;100402.00;4993772;28;20050;-51
2022/06/12 09:40:27;;;;;;;4.88;1.45;;;;;;;24.07;39.97;100393.88;4993713;28;20084;-58
2022/06/12 09:42:59;;;;;;;5.50;1.80;;;;;;;24.17;40.39;100397.31;4976558;28;20046;-58
2022/06/12 09:46:11;;;;;;;5.47;1.93;;;;;;;24.22;40.24;100399.50;4976379;28;20568;-60
2022/06/12 09:48:53;;;;;;;9.32;2.20;;;;;;;24.33;40.42;100388.44;4978140;28;20418;-60
2022/06/12 09:51:32;;;;;;;6.10;1.70;;;;;;;24.45;41.03;100380.91;4975701;28;20104;-56
2022/06/12 09:54:20;;;;;;;6.13;1.42;;;;;;;24.57;40.52;100378.78;4993301;28;20560;-57
2022/06/12 09:56:55;;;;;;;3.72;1.23;;;;;;;24.71;39.49;100379.97;4993735;28;20116;-60
2022/06/12 09:59:52;;;;;;;7.38;2.08;;;;;;;24.82;40.55;100377.97;4992933;28;20051;-60
2022/06/12 10:02:29;;;;;;;11.02;2.17;;;;;;;24.95;39.81;100378.38;4968403;28;20494;-59
2022/06/12 10:05:04;;;;;;;8.05;2.22;;;;;;;25.04;39.44;100379.19;4976236;28;20058;-59
2022/06/12 10:07:39;;;;;;;10.60;2.08;;;;;;;25.12;39.93;100378.38;4975325;28;20462;-59
2022/06/12 10:10:12;;;;;;;8.23;1.73;;;;;;;25.19;39.60;100368.59;4992886;28;20054;-59
2022/06/12 10:12:43;;;;;;;9.15;1.83;;;;;;;25.27;39.14;100367.78;4993113;28;20545;-58
2022/06/12 10:15:30;;;;;;;5.82;1.60;;;;;;;25.32;39.15;100365.41;4976075;28;20050;-59
2022/06/12 10:18:12;;;;;;;9.30;1.63;;;;;;;25.40;38.73;100361.00;4993286;28;20106;-58
2022/06/12 10:20:45;;;;;;;6.32;1.88;;;;;;;25.48;38.37;100367.22;4975866;28;20051;-54
2022/06/12 10:23:12;;;;;;;4.28;1.50;;;;;;;25.57;39.12;100353.78;4993766;28;20054;-58
2022/06/12 10:25:48;;;;;;;5.55;1.80;;;;;;;25.65;39.27;100353.75;4992614;28;20062;-59
2022/06/12 10:28:15;;;;;;;6.85;1.98;;;;;;;25.80;38.81;100344.94;4992901;28;20549;-59
2022/06/12 10:30:56;;;;;;;9.05;2.17;;;;;;;25.92;38.77;100367.81;4992791;28;20457;-58
2022/06/12 10:33:32;;;;;;;3.53;1.30;;;;;;;26.06;38.24;100350.06;4992857;28;20140;-59
2022/06/12 10:36:01;;;;;;;7.65;2.00;;;;;;;26.21;38.25;100352.03;4992937;28;20837;-57
2022/06/12 10:38:36;;;;;;;6.97;2.05;;;;;;;26.31;37.74;100346.44;4975247;28;20494;-59
2022/06/12 10:41:21;;;;;;;5.15;1.70;;;;;;;26.38;38.11;100342.84;4992708;28;20085;-60
2022/06/12 10:43:49;;;;;;;8.73;2.20;;;;;;;26.56;38.17;100360.63;4975614;28;20053;-59
2022/06/12 10:46:20;;;;;;;5.75;1.80;;;;;;;26.68;37.31;100350.25;4975069;28;20058;-59
2022/06/12 10:49:18;;;;;;;8.85;1.90;;;;;;;26.77;37.35;100348.34;4974908;28;20057;-63
2022/06/12 10:51:46;;;;;;;8.65;2.25;;;;;;;26.94;37.79;100354.44;4992673;28;20050;-58
2022/06/12 10:54:16;;;;;;;7.95;1.95;;;;;;;27.03;36.71;100348.00;4975191;28;20054;-59
2022/06/12 10:57:03;;;;;;;9.00;2.42;;;;;;;27.07;37.08;100353.88;4974818;28;20117;-61
2022/06/12 10:59:33;;;;;;;8.48;2.03;;;;;;;27.13;36.50;100353.16;4991870;28;20557;-55
2022/06/12 11:02:38;;;;;;;5.88;1.92;;;;;;;27.24;36.83;100345.63;4992318;28;20062;-58
2022/06/12 11:05:47;;;;;;;5.32;1.80;;;;;;;27.44;36.37;100356.75;4991954;28;20063;-56
2022/06/12 11:08:33;;;;;;;6.90;2.10;;;;;;;27.64;36.74;100351.69;4963902;28;20104;-59
2022/06/12 11:11:15;;;;;;;4.55;1.63;;;;;;;27.84;35.93;100354.66;4992018;28;20054;-60
2022/06/12 11:13:59;;;;;;;5.75;1.85;;;;;;;28.11;36.14;100348.75;4992059;28;20055;-61
2022/06/12 11:16:45;;;;;;;7.07;2.15;;;;;;;28.40;35.33;100338.09;4974679;28;20064;-58
2022/06/12 11:19:50;;;;;;;4.68;1.88;;;;;;;28.70;35.20;100332.56;4974314;28;20062;-57
2022/06/12 11:22:30;;;;;;;7.13;1.88;;;;;;;29.00;34.16;100337.84;4991898;28;20053;-59
2022/06/12 11:25:03;;;;;;;5.35;1.70;;;;;;;29.15;33.45;100340.47;4992111;28;20065;-60
2022/06/12 11:27:57;;;;;;;8.50;1.95;;;;;;;29.22;34.44;100325.09;4991741;28;20058;-61
2022/06/12 11:30:39;;;;;;;8.73;2.08;;;;;;;29.36;34.17;100326.03;4991797;28;20515;-60
2022/06/12 11:33:17;;;;;;;7.57;2.30;;;;;;;29.56;33.97;100324.53;4974295;28;20046;-60
2022/06/12 11:35:58;;;;;;;6.00;2.20;;;;;;;29.82;33.72;100325.69;4974535;28;20046;-60
2022/06/12 11:38:53;;;;;;;8.45;1.80;;;;;;;30.09;33.59;100329.34;4974118;28;20085;-61
2022/06/12 11:41:37;;;;;;;6.30;1.90;;;;;;;30.34;32.48;100334.25;4992030;28;20050;-59
2022/06/12 11:44:41;;;;;;;5.00;1.95;;;;;;;30.36;32.19;100323.19;4991863;28;20061;-58
2022/06/12 11:47:34;;;;;;;5.25;1.60;;;;;;;30.48;32.73;100326.16;4991702;28;20461;-59
2022/06/12 11:50:20;;;;;;;7.75;1.80;;;;;;;30.69;32.12;100312.38;4991342;28;20058;-60
2022/06/12 11:53:01;;;;;;;5.82;2.08;;;;;;;30.97;30.98;100321.41;4991097;28;20061;-60
2022/06/12 11:55:49;;;;;;;6.93;2.15;;;;;;;31.17;31.47;100321.41;4991363;28;20053;-58
2022/06/12 11:58:47;;;;;;;4.50;1.52;;;;;;;31.21;30.91;100317.22;4991334;28;20101;-57
2022/06/12 12:01:35;;;;;;;5.82;2.10;;;;;;;31.12;29.71;100312.19;4991220;28;20054;-59
2022/06/12 12:04:08;;;;;;;5.80;2.10;;;;;;;30.87;29.42;100310.13;4991234;28;20046;-60
2022/06/12 12:06:46;;;;;;;7.43;1.98;;;;;;;30.47;29.49;100314.47;4996245;28;20495;-57
2022/06/12 12:09:34;;;;;;;7.55;2.33;;;;;;;29.94;30.27;100318.66;4979716;28;20042;-60
2022/06/12 12:12:05;;;;;;;5.72;1.70;;;;;;;29.52;30.84;100315.94;5000827;28;20050;-57
2022/06/12 12:14:42;;;;;;;4.13;1.52;;;;;;;29.15;31.30;100313.34;4974699;28;20050;-59